sensor_id;sensor_type;location;lat;lon;timestamp;pressure;altitude;pressure_sealevel;temperature;humidity
14966;BME280;7577;45.226;5.798;2023-03-20T00:01:15;99558.17;;;21.29;46.36
14966;BME280;7577;45.226;5.798;2023-03-20T00:03:46;99554.09;;;21.26;46.30
14966;BME280;7577;45.226;5.798;2023-03-20T00:06:18;99556.31;;;21.27;46.24
14966;BME280;7577;45.226;5.798;2023-03-20T00:08:51;99554.65;;;21.26;46.22
14966;BME280;7577;45.226;5.798;2023-03-20T00:14:05;99549.38;;;21.27;46.11
14966;BME280;7577;45.226;5.798;2023-03-20T00:19:16;99554.41;;;21.25;46.08
14966;BME280;7577;45.226;5.798;2023-03-20T00:21:47;99562.55;;;21.21;46.06
14966;BME280;7577;45.226;5.798;2023-03-20T00:24:18;99561.41;;;21.22;45.98
14966;BME280;7577;45.226;5.798;2023-03-20T00:26:49;99564.50;;;21.21;45.99
14966;BME280;7577;45.226;5.798;2023-03-20T00:29:23;99560.92;;;21.20;45.98
14966;BME280;7577;45.226;5.798;2023-03-20T00:34:38;99557.57;;;21.21;45.91
14966;BME280;7577;45.226;5.798;2023-03-20T00:37:09;99552.34;;;21.19;45.85
14966;BME280;7577;45.226;5.798;2023-03-20T00:42:20;99547.87;;;21.21;45.81
14966;BME280;7577;45.226;5.798;2023-03-20T00:44:53;99545.48;;;21.17;45.84
14966;BME280;7577;45.226;5.798;2023-03-20T00:47:27;99543.55;;;21.17;45.81
14966;BME280;7577;45.226;5.798;2023-03-20T00:50:00;99546.31;;;21.17;45.79
14966;BME280;7577;45.226;5.798;2023-03-20T00:52:31;99548.84;;;21.16;45.78
14966;BME280;7577;45.226;5.798;2023-03-20T00:55:01;99549.98;;;21.15;45.75
14966;BME280;7577;45.226;5.798;2023-03-20T01:00:23;99542.48;;;21.16;45.75
14966;BME280;7577;45.226;5.798;2023-03-20T01:05:34;99535.06;;;21.14;45.75
14966;BME280;7577;45.226;5.798;2023-03-20T01:08:10;99530.39;;;21.12;45.72
14966;BME280;7577;45.226;5.798;2023-03-20T01:10:41;99522.39;;;21.10;45.73
14966;BME280;7577;45.226;5.798;2023-03-20T01:13:19;99523.78;;;21.10;45.74
14966;BME280;7577;45.226;5.798;2023-03-20T01:15:51;99521.84;;;21.11;45.70
14966;BME280;7577;45.226;5.798;2023-03-20T01:21:01;99514.36;;;21.11;45.73
14966;BME280;7577;45.226;5.798;2023-03-20T01:23:31;99510.83;;;21.08;45.71
14966;BME280;7577;45.226;5.798;2023-03-20T01:26:01;99510.00;;;21.08;45.70
14966;BME280;7577;45.226;5.798;2023-03-20T01:28:31;99502.84;;;21.07;45.66
14966;BME280;7577;45.226;5.798;2023-03-20T01:31:02;99502.04;;;21.06;45.69
14966;BME280;7577;45.226;5.798;2023-03-20T01:33:32;99491.75;;;21.07;45.66
14966;BME280;7577;45.226;5.798;2023-03-20T01:36:02;99488.50;;;21.05;45.60
14966;BME280;7577;45.226;5.798;2023-03-20T01:41:13;99486.22;;;21.07;45.61
14966;BME280;7577;45.226;5.798;2023-03-20T01:43:44;99481.58;;;21.05;45.59
14966;BME280;7577;45.226;5.798;2023-03-20T01:46:18;99479.61;;;21.05;45.59
14966;BME280;7577;45.226;5.798;2023-03-20T01:51:42;99470.88;;;21.01;45.65
14966;BME280;7577;45.226;5.798;2023-03-20T01:54:15;99478.37;;;21.00;45.59
14966;BME280;7577;45.226;5.798;2023-03-20T01:56:48;99475.36;;;20.99;45.63
14966;BME280;7577;45.226;5.798;2023-03-20T02:01:59;99468.67;;;21.00;45.53
14966;BME280;7577;45.226;5.798;2023-03-20T02:04:32;99473.73;;;20.98;45.52
14966;BME280;7577;45.226;5.798;2023-03-20T02:09:41;99459.30;;;20.99;45.55
14966;BME280;7577;45.226;5.798;2023-03-20T02:14:55;99463.77;;;20.97;45.48
14966;BME280;7577;45.226;5.798;2023-03-20T02:17:27;99464.34;;;20.97;45.41
14966;BME280;7577;45.226;5.798;2023-03-20T02:20:03;99459.61;;;20.97;45.40
14966;BME280;7577;45.226;5.798;2023-03-20T02:23:04;99460.52;;;20.95;45.44
14966;BME280;7577;45.226;5.798;2023-03-20T02:31:51;99452.83;;;20.92;45.48
14966;BME280;7577;45.226;5.798;2023-03-20T02:34:44;99451.20;;;20.91;45.41
14966;BME280;7577;45.226;5.798;2023-03-20T02:40:16;99457.61;;;20.89;45.45
14966;BME280;7577;45.226;5.798;2023-03-20T02:42:49;99450.69;;;20.89;45.39
14966;BME280;7577;45.226;5.798;2023-03-20T02:45:24;99454.33;;;20.87;45.41
14966;BME280;7577;45.226;5.798;2023-03-20T02:47:58;99453.19;;;20.88;45.36
14966;BME280;7577;45.226;5.798;2023-03-20T02:50:31;99455.47;;;20.86;45.40
14966;BME280;7577;45.226;5.798;2023-03-20T02:53:08;99455.47;;;20.86;45.38
14966;BME280;7577;45.226;5.798;2023-03-20T02:55:41;99449.11;;;20.86;45.30
14966;BME280;7577;45.226;5.798;2023-03-20T02:58:14;99455.47;;;20.86;45.34
14966;BME280;7577;45.226;5.798;2023-03-20T03:00:48;99457.69;;;20.87;45.33
14966;BME280;7577;45.226;5.798;2023-03-20T03:06:02;99457.69;;;20.87;45.33
14966;BME280;7577;45.226;5.798;2023-03-20T03:08:35;99456.34;;;20.84;45.29
14966;BME280;7577;45.226;5.798;2023-03-20T03:11:08;99462.71;;;20.85;45.28
14966;BME280;7577;45.226;5.798;2023-03-20T03:13:41;99459.45;;;20.83;45.27
14966;BME280;7577;45.226;5.798;2023-03-20T03:16:14;99456.10;;;20.83;45.24
14966;BME280;7577;45.226;5.798;2023-03-20T03:21:23;99452.19;;;20.84;45.23
14966;BME280;7577;45.226;5.798;2023-03-20T03:23:56;99446.17;;;20.82;45.20
14966;BME280;7577;45.226;5.798;2023-03-20T03:29:10;99448.94;;;20.82;45.24
14966;BME280;7577;45.226;5.798;2023-03-20T03:31:41;99448.77;;;20.79;45.17
14966;BME280;7577;45.226;5.798;2023-03-20T03:34:14;99450.71;;;20.78;45.21
14966;BME280;7577;45.226;5.798;2023-03-20T03:36:47;99448.53;;;20.78;45.21
14966;BME280;7577;45.226;5.798;2023-03-20T03:39:24;99448.53;;;20.78;45.19
14966;BME280;7577;45.226;5.798;2023-03-20T03:41:59;99450.39;;;20.80;45.25
14966;BME280;7577;45.226;5.798;2023-03-20T03:44:33;99451.02;;;20.77;45.20
14966;BME280;7577;45.226;5.798;2023-03-20T03:47:05;99448.64;;;20.73;45.34
14966;BME280;7577;45.226;5.798;2023-03-20T03:49:38;99450.78;;;20.76;45.36
14966;BME280;7577;45.226;5.798;2023-03-20T03:52:12;99449.95;;;20.75;45.56
14966;BME280;7577;45.226;5.798;2023-03-20T03:54:44;99457.39;;;20.77;46.14
14966;BME280;7577;45.226;5.798;2023-03-20T03:57:19;99452.34;;;20.79;46.04
14966;BME280;7577;45.226;5.798;2023-03-20T03:59:50;99451.22;;;20.80;45.97
14966;BME280;7577;45.226;5.798;2023-03-20T04:05:01;99451.53;;;20.79;46.73
14966;BME280;7577;45.226;5.798;2023-03-20T04:07:32;99454.79;;;20.81;46.21
14966;BME280;7577;45.226;5.798;2023-03-20T04:10:03;99456.48;;;20.79;46.05
14966;BME280;7577;45.226;5.798;2023-03-20T04:12:35;99457.63;;;20.78;46.03
14966;BME280;7577;45.226;5.798;2023-03-20T04:15:08;99455.48;;;20.75;46.04
14966;BME280;7577;45.226;5.798;2023-03-20T04:17:38;99452.99;;;20.76;45.97
14966;BME280;7577;45.226;5.798;2023-03-20T04:20:11;99455.17;;;20.77;45.91
14966;BME280;7577;45.226;5.798;2023-03-20T04:22:41;99458.53;;;20.76;45.90
14966;BME280;7577;45.226;5.798;2023-03-20T04:25:17;99461.62;;;20.75;45.88
14966;BME280;7577;45.226;5.798;2023-03-20T04:27:47;99464.94;;;20.74;45.85
14966;BME280;7577;45.226;5.798;2023-03-20T04:30:19;99469.33;;;20.75;45.76
14966;BME280;7577;45.226;5.798;2023-03-20T04:32:49;99476.25;;;20.75;45.76
14966;BME280;7577;45.226;5.798;2023-03-20T04:35:19;99489.30;;;20.75;45.79
14966;BME280;7577;45.226;5.798;2023-03-20T04:37:50;99495.39;;;20.74;45.84
14966;BME280;7577;45.226;5.798;2023-03-20T04:40:20;99492.38;;;20.73;45.77
14966;BME280;7577;45.226;5.798;2023-03-20T04:42:51;99483.25;;;20.73;45.72
14966;BME280;7577;45.226;5.798;2023-03-20T04:45:21;99478.85;;;20.72;45.73
14966;BME280;7577;45.226;5.798;2023-03-20T04:47:51;99480.30;;;20.69;45.74
14966;BME280;7577;45.226;5.798;2023-03-20T04:50:21;99478.09;;;20.69;45.71
14966;BME280;7577;45.226;5.798;2023-03-20T04:52:51;99464.02;;;20.68;45.67
14966;BME280;7577;45.226;5.798;2023-03-20T04:55:21;99470.62;;;20.69;45.59
14966;BME280;7577;45.226;5.798;2023-03-20T04:57:51;99474.45;;;20.71;45.56
14966;BME280;7577;45.226;5.798;2023-03-20T05:00:24;99468.41;;;20.69;45.51
14966;BME280;7577;45.226;5.798;2023-03-20T05:02:55;99468.41;;;20.69;45.50
14966;BME280;7577;45.226;5.798;2023-03-20T05:05:25;99472.56;;;20.69;45.48
14966;BME280;7577;45.226;5.798;2023-03-20T05:07:56;99468.98;;;20.68;45.46
14966;BME280;7577;45.226;5.798;2023-03-20T05:10:26;99461.24;;;20.68;45.44
14966;BME280;7577;45.226;5.798;2023-03-20T05:12:56;99462.63;;;20.68;45.42
14966;BME280;7577;45.226;5.798;2023-03-20T05:15:26;99462.63;;;20.68;45.39
14966;BME280;7577;45.226;5.798;2023-03-20T05:17:56;99464.59;;;20.67;45.38
14966;BME280;7577;45.226;5.798;2023-03-20T05:20:26;99468.68;;;20.70;45.33
14966;BME280;7577;45.226;5.798;2023-03-20T05:22:56;99468.68;;;20.70;45.33
14966;BME280;7577;45.226;5.798;2023-03-20T05:28:05;99463.07;;;20.72;45.40
14966;BME280;7577;45.226;5.798;2023-03-20T05:30:35;99463.07;;;20.72;45.63
14966;BME280;7577;45.226;5.798;2023-03-20T05:33:05;99465.53;;;20.74;45.63
14966;BME280;7577;45.226;5.798;2023-03-20T05:35:36;99467.16;;;20.75;45.61
14966;BME280;7577;45.226;5.798;2023-03-20T05:38:06;99473.10;;;20.79;45.59
14966;BME280;7577;45.226;5.798;2023-03-20T05:40:36;99469.84;;;20.77;45.52
14966;BME280;7577;45.226;5.798;2023-03-20T05:45:47;99478.09;;;20.80;45.65
14966;BME280;7577;45.226;5.798;2023-03-20T05:48:18;99479.71;;;20.81;45.81
14966;BME280;7577;45.226;5.798;2023-03-20T05:50:48;99478.56;;;20.82;46.03
14966;BME280;7577;45.226;5.798;2023-03-20T05:53:19;99480.70;;;20.85;46.05
14966;BME280;7577;45.226;5.798;2023-03-20T05:55:49;99475.41;;;20.86;46.04
14966;BME280;7577;45.226;5.798;2023-03-20T05:58:19;99477.63;;;20.86;46.02
14966;BME280;7577;45.226;5.798;2023-03-20T06:03:30;99478.38;;;20.89;46.08
14966;BME280;7577;45.226;5.798;2023-03-20T06:06:00;99481.70;;;20.89;46.10
14966;BME280;7577;45.226;5.798;2023-03-20T06:08:31;99481.67;;;20.91;46.11
14966;BME280;7577;45.226;5.798;2023-03-20T06:11:01;99490.81;;;20.92;46.21
14966;BME280;7577;45.226;5.798;2023-03-20T06:13:31;99489.42;;;20.92;46.18
14966;BME280;7577;45.226;5.798;2023-03-20T06:16:02;99492.92;;;20.95;46.18
14966;BME280;7577;45.226;5.798;2023-03-20T06:18:32;99493.75;;;20.95;46.17
14966;BME280;7577;45.226;5.798;2023-03-20T06:23:42;99492.29;;;20.98;46.28
14966;BME280;7577;45.226;5.798;2023-03-20T06:26:13;99499.73;;;21.00;46.30
14966;BME280;7577;45.226;5.798;2023-03-20T06:28:43;99507.38;;;21.03;46.14
14966;BME280;7577;45.226;5.798;2023-03-20T06:31:13;99502.08;;;21.04;46.04
14966;BME280;7577;45.226;5.798;2023-03-20T06:33:44;99505.61;;;21.07;46.22
14966;BME280;7577;45.226;5.798;2023-03-20T06:36:15;99501.77;;;21.05;46.00
14966;BME280;7577;45.226;5.798;2023-03-20T06:38:45;99504.53;;;21.05;46.13
14966;BME280;7577;45.226;5.798;2023-03-20T06:43:53;99499.99;;;21.09;46.12
14966;BME280;7577;45.226;5.798;2023-03-20T06:46:23;99496.73;;;21.07;46.02
14966;BME280;7577;45.226;5.798;2023-03-20T06:51:31;99489.11;;;21.13;45.95
14966;BME280;7577;45.226;5.798;2023-03-20T06:54:01;99495.61;;;21.17;46.92
14966;BME280;7577;45.226;5.798;2023-03-20T06:56:31;99503.46;;;21.23;45.96
14966;BME280;7577;45.226;5.798;2023-03-20T06:59:01;99503.73;;;21.24;45.82
14966;BME280;7577;45.226;5.798;2023-03-20T07:01:32;99506.91;;;21.29;45.60
14966;BME280;7577;45.226;5.798;2023-03-20T07:04:03;99504.66;;;21.31;45.62
14966;BME280;7577;45.226;5.798;2023-03-20T07:06:35;99507.67;;;21.32;45.67
14966;BME280;7577;45.226;5.798;2023-03-20T07:09:05;99510.92;;;21.34;45.76
14966;BME280;7577;45.226;5.798;2023-03-20T07:11:36;99516.73;;;21.35;45.50
14966;BME280;7577;45.226;5.798;2023-03-20T07:14:06;99521.69;;;21.35;45.35
14966;BME280;7577;45.226;5.798;2023-03-20T07:16:36;99525.29;;;21.36;45.30
14966;BME280;7577;45.226;5.798;2023-03-20T07:19:06;99531.08;;;21.37;45.23
14966;BME280;7577;45.226;5.798;2023-03-20T07:24:14;99534.33;;;21.39;45.21
14966;BME280;7577;45.226;5.798;2023-03-20T07:26:44;99534.67;;;21.37;45.24
14966;BME280;7577;45.226;5.798;2023-03-20T07:29:15;99542.16;;;21.37;45.31
14966;BME280;7577;45.226;5.798;2023-03-20T07:31:45;99540.77;;;21.37;45.34
14966;BME280;7577;45.226;5.798;2023-03-20T07:36:53;99534.75;;;21.35;45.04
14966;BME280;7577;45.226;5.798;2023-03-20T07:39:24;99540.34;;;21.32;45.04
14966;BME280;7577;45.226;5.798;2023-03-20T07:41:55;99546.15;;;21.33;44.98
14966;BME280;7577;45.226;5.798;2023-03-20T07:44:25;99549.16;;;21.34;44.92
14966;BME280;7577;45.226;5.798;2023-03-20T07:46:55;99549.16;;;21.34;44.90
14966;BME280;7577;45.226;5.798;2023-03-20T07:49:26;99554.70;;;21.34;44.89
14966;BME280;7577;45.226;5.798;2023-03-20T07:51:56;99550.79;;;21.35;44.81
14966;BME280;7577;45.226;5.798;2023-03-20T07:54:26;99551.10;;;21.34;44.82
14966;BME280;7577;45.226;5.798;2023-03-20T07:56:57;99554.62;;;21.37;44.77
14966;BME280;7577;45.226;5.798;2023-03-20T07:59:27;99551.03;;;21.36;44.69
14966;BME280;7577;45.226;5.798;2023-03-20T08:01:57;99561.00;;;21.37;44.66
14966;BME280;7577;45.226;5.798;2023-03-20T08:04:27;99559.03;;;21.38;44.63
14966;BME280;7577;45.226;5.798;2023-03-20T08:06:57;99552.69;;;21.37;44.58
14966;BME280;7577;45.226;5.798;2023-03-20T08:09:27;99559.34;;;21.36;44.62
14966;BME280;7577;45.226;5.798;2023-03-20T08:11:57;99557.41;;;21.37;44.59
14966;BME280;7577;45.226;5.798;2023-03-20T08:14:27;99560.41;;;21.38;44.55
14966;BME280;7577;45.226;5.798;2023-03-20T08:16:58;99559.27;;;21.39;44.53
14966;BME280;7577;45.226;5.798;2023-03-20T08:19:29;99554.56;;;21.39;44.52
14966;BME280;7577;45.226;5.798;2023-03-20T08:24:37;99561.17;;;21.41;44.48
14966;BME280;7577;45.226;5.798;2023-03-20T08:27:07;99559.55;;;21.40;44.45
14966;BME280;7577;45.226;5.798;2023-03-20T08:29:37;99562.00;;;21.41;44.40
14966;BME280;7577;45.226;5.798;2023-03-20T08:32:07;99568.09;;;21.41;44.42
14966;BME280;7577;45.226;5.798;2023-03-20T08:34:38;99566.95;;;21.42;44.37
14966;BME280;7577;45.226;5.798;2023-03-20T08:37:08;99564.77;;;21.41;44.38
14966;BME280;7577;45.226;5.798;2023-03-20T08:39:40;99567.78;;;21.42;44.34
14966;BME280;7577;45.226;5.798;2023-03-20T08:42:10;99568.58;;;21.43;44.32
14966;BME280;7577;45.226;5.798;2023-03-20T08:44:40;99568.03;;;21.43;44.30
14966;BME280;7577;45.226;5.798;2023-03-20T08:47:11;99570.23;;;21.44;44.31
14966;BME280;7577;45.226;5.798;2023-03-20T08:49:42;99569.66;;;21.44;44.27
14966;BME280;7577;45.226;5.798;2023-03-20T08:52:12;99574.33;;;21.46;44.26
14966;BME280;7577;45.226;5.798;2023-03-20T08:54:43;99572.11;;;21.46;44.24
14966;BME280;7577;45.226;5.798;2023-03-20T08:57:13;99577.89;;;21.47;44.20
14966;BME280;7577;45.226;5.798;2023-03-20T08:59:43;99579.20;;;21.49;44.19
14966;BME280;7577;45.226;5.798;2023-03-20T09:02:13;99581.73;;;21.48;44.16
14966;BME280;7577;45.226;5.798;2023-03-20T09:04:44;99583.95;;;21.49;44.16
14966;BME280;7577;45.226;5.798;2023-03-20T09:07:14;99582.80;;;21.50;44.13
14966;BME280;7577;45.226;5.798;2023-03-20T09:09:44;99585.34;;;21.49;44.17
14966;BME280;7577;45.226;5.798;2023-03-20T09:12:15;99582.56;;;21.49;44.14
14966;BME280;7577;45.226;5.798;2023-03-20T09:14:45;99582.56;;;21.49;44.13
14966;BME280;7577;45.226;5.798;2023-03-20T09:17:15;99584.75;;;21.49;44.14
14966;BME280;7577;45.226;5.798;2023-03-20T09:19:45;99581.98;;;21.49;44.10
14966;BME280;7577;45.226;5.798;2023-03-20T09:22:15;99587.45;;;21.52;44.07
14966;BME280;7577;45.226;5.798;2023-03-20T09:24:46;99586.58;;;21.54;44.01
14966;BME280;7577;45.226;5.798;2023-03-20T09:27:17;99586.89;;;21.52;44.02
14966;BME280;7577;45.226;5.798;2023-03-20T09:29:47;99584.95;;;21.53;44.00
14966;BME280;7577;45.226;5.798;2023-03-20T09:32:17;99587.72;;;21.53;43.99
14966;BME280;7577;45.226;5.798;2023-03-20T09:34:47;99592.36;;;21.55;43.96
14966;BME280;7577;45.226;5.798;2023-03-20T09:37:17;99594.58;;;21.55;43.94
14966;BME280;7577;45.226;5.798;2023-03-20T09:39:48;99597.34;;;21.55;43.96
14966;BME280;7577;45.226;5.798;2023-03-20T09:42:24;99604.59;;;21.54;43.96
14966;BME280;7577;45.226;5.798;2023-03-20T09:47:39;99609.83;;;21.55;43.97
14966;BME280;7577;45.226;5.798;2023-03-20T09:50:19;99612.08;;;21.53;43.94
14966;BME280;7577;45.226;5.798;2023-03-20T09:52:57;99617.63;;;21.53;43.92
14966;BME280;7577;45.226;5.798;2023-03-20T09:55:33;99616.83;;;21.53;43.91
14966;BME280;7577;45.226;5.798;2023-03-20T09:58:11;99619.33;;;21.52;43.97
14966;BME280;7577;45.226;5.798;2023-03-20T10:00:44;99616.08;;;21.50;43.96
14966;BME280;7577;45.226;5.798;2023-03-20T10:03:19;99617.70;;;21.51;43.96
14966;BME280;7577;45.226;5.798;2023-03-20T10:05:55;99620.16;;;21.52;43.90
14966;BME280;7577;45.226;5.798;2023-03-20T10:08:28;99611.84;;;21.52;43.87
14966;BME280;7577;45.226;5.798;2023-03-20T10:11:05;99614.06;;;21.53;43.86
14966;BME280;7577;45.226;5.798;2023-03-20T10:16:43;99617.95;;;21.52;43.92
14966;BME280;7577;45.226;5.798;2023-03-20T10:19:20;99624.56;;;21.53;43.85
14966;BME280;7577;45.226;5.798;2023-03-20T10:21:56;99621.78;;;21.53;43.79
14966;BME280;7577;45.226;5.798;2023-03-20T10:24:28;99621.23;;;21.54;43.79
14966;BME280;7577;45.226;5.798;2023-03-20T10:27:03;99621.23;;;21.54;43.78
14966;BME280;7577;45.226;5.798;2023-03-20T10:32:19;99617.07;;;21.54;43.79
14966;BME280;7577;45.226;5.798;2023-03-20T10:34:58;99624.80;;;21.54;43.74
14966;BME280;7577;45.226;5.798;2023-03-20T10:37:45;99623.17;;;21.53;43.74
14966;BME280;7577;45.226;5.798;2023-03-20T10:40:28;99616.48;;;21.54;43.72
14966;BME280;7577;45.226;5.798;2023-03-20T10:43:02;99615.05;;;21.57;43.67
14966;BME280;7577;45.226;5.798;2023-03-20T10:45:39;99613.16;;;21.55;43.68
14966;BME280;7577;45.226;5.798;2023-03-20T10:48:18;99610.63;;;21.56;43.62
14966;BME280;7577;45.226;5.798;2023-03-20T10:50:50;99613.67;;;21.57;43.65
14966;BME280;7577;45.226;5.798;2023-03-20T10:53:25;99612.01;;;21.56;43.62
14966;BME280;7577;45.226;5.798;2023-03-20T10:55:57;99618.38;;;21.56;43.61
14966;BME280;7577;45.226;5.798;2023-03-20T10:58:30;99613.08;;;21.57;43.60
14966;BME280;7577;45.226;5.798;2023-03-20T11:01:02;99613.32;;;21.58;43.54
14966;BME280;7577;45.226;5.798;2023-03-20T11:03:33;99619.70;;;21.59;43.54
14966;BME280;7577;45.226;5.798;2023-03-20T11:06:11;99620.77;;;21.60;43.52
14966;BME280;7577;45.226;5.798;2023-03-20T11:08:45;99625.17;;;21.61;43.49
14966;BME280;7577;45.226;5.798;2023-03-20T11:11:21;99625.24;;;21.59;43.51
14966;BME280;7577;45.226;5.798;2023-03-20T11:13:51;99634.39;;;21.59;43.50
14966;BME280;7577;45.226;5.798;2023-03-20T11:16:24;99634.95;;;21.59;43.51
14966;BME280;7577;45.226;5.798;2023-03-20T11:18:54;99630.47;;;21.60;43.50
14966;BME280;7577;45.226;5.798;2023-03-20T11:24:18;99632.86;;;21.64;43.44
14966;BME280;7577;45.226;5.798;2023-03-20T11:26:49;99639.86;;;21.62;43.42
14966;BME280;7577;45.226;5.798;2023-03-20T11:29:23;99635.95;;;21.63;43.38
14966;BME280;7577;45.226;5.798;2023-03-20T11:31:54;99629.84;;;21.63;43.37
14966;BME280;7577;45.226;5.798;2023-03-20T11:34:26;99631.47;;;21.64;43.35
14966;BME280;7577;45.226;5.798;2023-03-20T11:37:00;99625.92;;;21.64;43.31
14966;BME280;7577;45.226;5.798;2023-03-20T11:39:32;99631.47;;;21.64;43.32
14966;BME280;7577;45.226;5.798;2023-03-20T11:42:18;99629.84;;;21.63;43.32
14966;BME280;7577;45.226;5.798;2023-03-20T11:44:35;99624.86;;;21.63;43.30
14966;BME280;7577;45.226;5.798;2023-03-20T11:47:10;99623.16;;;21.64;43.27
14966;BME280;7577;45.226;5.798;2023-03-20T11:49:47;99623.39;;;21.65;43.24
14966;BME280;7577;45.226;5.798;2023-03-20T11:52:23;99621.17;;;21.65;43.24
14966;BME280;7577;45.226;5.798;2023-03-20T11:54:56;99616.94;;;21.67;43.19
14966;BME280;7577;45.226;5.798;2023-03-20T11:57:31;99621.93;;;21.68;43.17
14966;BME280;7577;45.226;5.798;2023-03-20T12:00:05;99618.09;;;21.66;43.17
14966;BME280;7577;45.226;5.798;2023-03-20T12:02:39;99619.47;;;21.66;43.17
14966;BME280;7577;45.226;5.798;2023-03-20T12:05:29;99613.37;;;21.67;43.15
14966;BME280;7577;45.226;5.798;2023-03-20T12:08:02;99615.55;;;21.67;43.11
14966;BME280;7577;45.226;5.798;2023-03-20T12:10:35;99609.45;;;21.68;43.09
14966;BME280;7577;45.226;5.798;2023-03-20T12:13:11;99610.80;;;21.70;43.07
14966;BME280;7577;45.226;5.798;2023-03-20T12:15:44;99602.72;;;21.71;43.04
14966;BME280;7577;45.226;5.798;2023-03-20T12:18:19;99599.14;;;21.71;43.05
14966;BME280;7577;45.226;5.798;2023-03-20T12:23:33;99598.91;;;21.78;42.96
14966;BME280;7577;45.226;5.798;2023-03-20T12:26:07;99602.01;;;21.77;42.92
14966;BME280;7577;45.226;5.798;2023-03-20T12:28:39;99596.14;;;21.78;42.87
14966;BME280;7577;45.226;5.798;2023-03-20T12:31:18;99588.30;;;21.80;42.82
14966;BME280;7577;45.226;5.798;2023-03-20T12:33:52;99589.37;;;21.82;42.81
14966;BME280;7577;45.226;5.798;2023-03-20T12:36:28;99584.89;;;21.83;42.77
14966;BME280;7577;45.226;5.798;2023-03-20T12:38:59;99586.80;;;21.85;42.74
14966;BME280;7577;45.226;5.798;2023-03-20T12:41:35;99580.10;;;21.86;42.68
14966;BME280;7577;45.226;5.798;2023-03-20T12:44:21;99577.88;;;21.86;42.70
14966;BME280;7577;45.226;5.798;2023-03-20T12:49:39;99566.07;;;21.91;42.64
14966;BME280;7577;45.226;5.798;2023-03-20T12:52:16;99564.13;;;21.92;42.59
14966;BME280;7577;45.226;5.798;2023-03-20T12:54:59;99562.07;;;21.95;42.51
14966;BME280;7577;45.226;5.798;2023-03-20T12:57:32;99558.42;;;21.97;42.46
14966;BME280;7577;45.226;5.798;2023-03-20T13:03:00;99542.68;;;22.03;42.42
14966;BME280;7577;45.226;5.798;2023-03-20T13:05:42;99543.98;;;22.06;42.33
14966;BME280;7577;45.226;5.798;2023-03-20T13:08:20;99537.77;;;22.09;42.31
14966;BME280;7577;45.226;5.798;2023-03-20T13:10:56;99533.88;;;22.10;42.27
14966;BME280;7577;45.226;5.798;2023-03-20T13:13:31;99526.61;;;22.12;42.23
14966;BME280;7577;45.226;5.798;2023-03-20T13:16:08;99523.48;;;22.13;42.16
14966;BME280;7577;45.226;5.798;2023-03-20T13:18:49;99516.47;;;22.15;42.12
14966;BME280;7577;45.226;5.798;2023-03-20T13:21:23;99518.68;;;22.16;42.09
14966;BME280;7577;45.226;5.798;2023-03-20T13:23:58;99505.36;;;22.15;42.05
14966;BME280;7577;45.226;5.798;2023-03-20T13:26:33;99506.19;;;22.16;42.02
14966;BME280;7577;45.226;5.798;2023-03-20T13:29:07;99500.88;;;22.17;41.99
14966;BME280;7577;45.226;5.798;2023-03-20T13:31:46;99491.44;;;22.18;41.92
14966;BME280;7577;45.226;5.798;2023-03-20T13:34:23;99483.58;;;22.20;41.92
14966;BME280;7577;45.226;5.798;2023-03-20T13:37:11;99475.73;;;22.22;41.89
14966;BME280;7577;45.226;5.798;2023-03-20T13:39:46;99471.16;;;22.26;41.78
14966;BME280;7577;45.226;5.798;2023-03-20T13:42:19;99462.83;;;22.26;41.78
14966;BME280;7577;45.226;5.798;2023-03-20T13:44:52;99460.65;;;22.26;41.72
14966;BME280;7577;45.226;5.798;2023-03-20T13:50:05;99442.44;;;22.31;41.58
14966;BME280;7577;45.226;5.798;2023-03-20T13:52:38;99442.76;;;22.29;41.60
14966;BME280;7577;45.226;5.798;2023-03-20T13:55:18;99445.12;;;22.33;41.46
14966;BME280;7577;45.226;5.798;2023-03-20T13:58:01;99442.02;;;22.35;41.42
14966;BME280;7577;45.226;5.798;2023-03-20T14:00:34;99440.31;;;22.36;41.40
14966;BME280;7577;45.226;5.798;2023-03-20T14:03:16;99430.59;;;22.36;41.34
14966;BME280;7577;45.226;5.798;2023-03-20T14:05:47;99422.97;;;22.39;41.29
14966;BME280;7577;45.226;5.798;2023-03-20T14:11:28;99414.41;;;22.38;41.34
14966;BME280;7577;45.226;5.798;2023-03-20T14:14:07;99422.08;;;22.41;41.31
14966;BME280;7577;45.226;5.798;2023-03-20T14:16:38;99421.58;;;22.39;41.28
14966;BME280;7577;45.226;5.798;2023-03-20T14:19:15;99424.27;;;22.42;41.27
14966;BME280;7577;45.226;5.798;2023-03-20T14:24:28;99419.98;;;22.47;41.18
14966;BME280;7577;45.226;5.798;2023-03-20T14:27:00;99426.57;;;22.48;41.11
14966;BME280;7577;45.226;5.798;2023-03-20T14:29:36;99422.81;;;22.53;40.98
14966;BME280;7577;45.226;5.798;2023-03-20T14:32:30;99420.87;;;22.53;41.00
14966;BME280;7577;45.226;5.798;2023-03-20T14:35:19;99414.95;;;22.55;40.95
14966;BME280;7577;45.226;5.798;2023-03-20T14:38:10;99408.70;;;22.52;41.00
14966;BME280;7577;45.226;5.798;2023-03-20T14:40:46;99408.02;;;22.55;40.93
14966;BME280;7577;45.226;5.798;2023-03-20T14:45:57;99399.17;;;22.61;40.83
14966;BME280;7577;45.226;5.798;2023-03-20T14:48:32;99399.67;;;22.63;40.74
14966;BME280;7577;45.226;5.798;2023-03-20T14:51:10;99396.30;;;22.64;40.76
14966;BME280;7577;45.226;5.798;2023-03-20T14:53:41;99392.77;;;22.69;40.64
14966;BME280;7577;45.226;5.798;2023-03-20T14:56:13;99396.61;;;22.71;40.61
14966;BME280;7577;45.226;5.798;2023-03-20T14:58:56;99389.81;;;22.74;40.57
14966;BME280;7577;45.226;5.798;2023-03-20T15:01:47;99391.10;;;22.77;40.50
14966;BME280;7577;45.226;5.798;2023-03-20T15:04:29;99385.22;;;22.78;40.47
14966;BME280;7577;45.226;5.798;2023-03-20T15:07:03;99384.89;;;22.80;40.43
14966;BME280;7577;45.226;5.798;2023-03-20T15:09:36;99384.33;;;22.80;40.42
14966;BME280;7577;45.226;5.798;2023-03-20T15:12:09;99382.61;;;22.82;40.39
14966;BME280;7577;45.226;5.798;2023-03-20T15:14:43;99376.13;;;22.84;40.44
14966;BME280;7577;45.226;5.798;2023-03-20T15:17:19;99370.58;;;22.84;40.40
14966;BME280;7577;45.226;5.798;2023-03-20T15:19:51;99369.91;;;22.87;40.40
14966;BME280;7577;45.226;5.798;2023-03-20T15:22:22;99365.45;;;22.94;40.27
14966;BME280;7577;45.226;5.798;2023-03-20T15:24:54;99373.83;;;23.00;40.21
14966;BME280;7577;45.226;5.798;2023-03-20T15:27:27;99366.45;;;23.04;40.11